CheckWX is a tool to help pilots better visualize weather data.  It is not intended as a substitute for an official pre-flight weather briefing.

07:12:57 UTC

EDHI TAF
Hamburg-Finkenwerder Airport
Hamburg, Germany
TAF EDHI 200500Z 2006/2015 23008KT 9999 SCT030 PROB30 TEMPO 2006/2008 BKN008 TEMPO 2008/2015 SHRA BKN020CB PROB30 TEMPO 2009/2015 25015G30KT 4000 TSRA BKN012CB BECMG 2013/2015 30008KT

Jun-20@
06:00 UTC

Jun-20 @ 06:00 UTC

Jun-20@
13:00 UTC

Jun-20 @ 13:00 UTC

TAF EDHI 200500Z 2006/2015 23008KT 9999 SCT030
Wind
  • 230° at 8 KTS
Cloud Levels
  • Scattered at 3,000' AGL

Jun-20@
06:00 UTC

Jun-20 @ 06:00 UTC

Jun-20@
08:00 UTC

Jun-20 @ 08:00 UTC

PROB30 TEMPO 2006/2008 BKN008

Temporary - 30% Likelihood

Temporary - 30% Likelihood during this time.

Cloud Levels
  • Broken at 800' AGL

Jun-20@
08:00 UTC

Jun-20 @ 08:00 UTC

Jun-20@
15:00 UTC

Jun-20 @ 15:00 UTC

TEMPO 2008/2015 SHRA BKN020CB

Temporary

Temporary Changes expected for less than half the time period

Conditions
Rain
Cloud Levels
  • Broken at 2,000' AGL

Jun-20@
09:00 UTC

Jun-20 @ 09:00 UTC

Jun-20@
15:00 UTC

Jun-20 @ 15:00 UTC

PROB30 TEMPO 2009/2015 25015G30KT 4000 TSRA BKN012CB

Temporary - 30% Likelihood

Temporary - 30% Likelihood during this time.

Wind
  • 250° at 15 KTS
  • {Gusting to 30 KTS
Conditions
Thunderstorm, Rain
Cloud Levels
  • Broken at 1,200' AGL

Jun-20@
13:00 UTC

Jun-20 @ 13:00 UTC

Jun-20@
15:00 UTC

Jun-20 @ 15:00 UTC

BECMG 2013/2015 30008KT

Becoming

Becoming Conditions expected by Thu, Jun 20, 2019 @ 15:00 UTC

Wind
  • 300° at 8 KTS
Cloud Levels
  • Scattered at 3,000' AGL